x

9418767 - North Spit, Ca (hbyc1) Weather Station

6:36pm - Tue 23rd Jan 2018 All times are PST. -8 hours from GMT.

  • Wind
    24mph, 31mph gusts
  • Sea Temp 53°f
  • Air Temp 54°f
  • Sea Pressure 1018.7mb
  • 9418767 - North Spit, Ca
  • 9418767 - North Spit, Ca

More Historic Weather Station data

Upgrade to MSW Pro to gain access to the past 30 days of data for over 8000 Wavebouys and Weather Stations around the globe.

Join

Comparision Forecast

View Surf forecast
   
Tue 01/23 6:36pm 24 31 mph 1018.7mb 53f 54f
6:30pm 24 29 mph 1018.8mb 53f 53f
6:24pm 25 29 mph 1018.9mb 53f 53f
6:18pm 28 33 mph 1019mb 53f 54f
6:12pm 26 32 mph 1019mb 53f 54f
6:06pm 26 31 mph 1019.1mb 53f 54f
6:00pm 25 30 mph 1019.1mb 53f 54f
5:36pm 23 29 mph 1019.3mb 53f 54f
5:30pm 23 28 mph 1019.5mb 53f 54f
5:24pm 25 31 mph 1019.5mb 53f 54f
5:18pm 23 29 mph 1019.6mb 53f 54f
5:12pm 21 26 mph 1019.8mb 53f 54f
5:06pm 22 28 mph 1019.9mb 52f 54f
5:00pm 22 25 mph 1019.9mb 52f 54f
4:36pm 22 25 mph 1020.2mb 52f 54f
4:30pm 17 23 mph 1020.3mb 52f 54f
4:24pm 16 18 mph 1020.3mb 52f 54f
4:18pm 17 22 mph 1020.4mb 52f 55f
4:12pm 20 23 mph 1020.2mb 52f 55f
4:06pm 20 23 mph 1020.2mb 52f 55f
4:00pm 16 21 mph 1020.2mb 52f 55f
3:36pm 22 25 mph 1020.2mb 52f 55f
3:30pm 20 24 mph 1020.2mb 52f 55f
3:24pm 22 24 mph 1020.4mb 52f 55f
3:18pm 21 24 mph 1020.3mb 52f 55f
3:12pm 20 23 mph 1020.3mb 52f 55f
3:06pm 16 23 mph 1020.3mb 52f 55f
3:00pm 17 22 mph 1020.4mb 52f 55f
2:36pm 16 23 mph 1020.7mb 52f 55f
2:30pm 20 23 mph 1020.6mb 52f 55f
2:24pm 23 28 mph 1020.7mb 52f 55f
2:18pm 21 26 mph 1020.7mb 52f 55f
2:12pm 16 23 mph 1020.6mb 52f 55f
2:06pm 20 24 mph 1020.7mb 52f 56f
2:00pm 18 22 mph 1020.7mb 52f 55f
1:36pm 11 18 mph 1021.1mb 52f 55f
1:30pm 16 20 mph 1021.1mb 52f 55f
1:24pm 14 21 mph 1021.2mb 52f 55f
1:18pm 16 20 mph 1021.4mb 52f 55f
1:12pm 16 21 mph 1021.4mb 52f 54f
1:06pm 21 25 mph 1021.4mb 52f 54f
1:00pm 22 25 mph 1021.5mb 52f 54f
12:36pm 22 26 mph 1022mb 52f 54f
12:30pm 25 29 mph 1022.1mb 52f 54f
12:24pm 21 24 mph 1022.3mb 52f 54f
12:18pm 20 23 mph 1022.4mb 52f 54f
12:12pm 21 25 mph 1022.5mb 52f 54f
12:06pm 22 24 mph 1022.5mb 52f 54f
12:00pm 22 24 mph 1022.6mb 52f 54f
11:36am 21 25 mph 1023.1mb 52f 54f
11:30am 22 26 mph 1023.1mb 52f 54f
11:24am 18 23 mph 1023.1mb 52f 53f
11:18am 18 25 mph 1023.1mb 52f 53f
11:12am 24 29 mph 1023.1mb 52f 54f
11:06am 24 29 mph 1023.1mb 52f 54f
11:00am 23 29 mph 1023.2mb 52f 54f
10:36am 20 23 mph 1023mb 52f 54f
10:30am 20 22 mph 1022.9mb 52f 55f
10:24am 16 20 mph 1022.9mb 52f 54f
10:18am 16 22 mph 1022.9mb 52f 54f
10:12am 11 15 mph 1022.9mb 52f 54f
10:06am 11 15 mph 1022.9mb 52f 54f
10:00am 9 17 mph 1022.9mb 52f 54f
9:36am 15 18 mph 1022.9mb 52f 53f
9:30am 10 15 mph 1023mb 52f 53f
9:24am 7 10 mph 1023.1mb 52f 52f
9:18am 6 8 mph 1023.1mb 52f 52f
9:12am 8 13 mph 1023mb 52f 51f
9:06am 8 14 mph 1023mb 52f 51f
9:00am 8 11 mph 1023mb 52f 51f
8:36am 8 10 mph 1022.9mb 52f 50f
8:30am 6 8 mph 1023mb 52f 50f
8:24am 5 7 mph 1022.9mb 52f 49f
8:18am 7 9 mph 1022.9mb 52f 49f
8:12am 8 10 mph 1023mb 52f 49f
8:06am 7 10 mph 1023.2mb 52f 48f
8:00am 9 13 mph 1023.2mb 52f 48f
7:36am 14 16 mph 1023.4mb 52f 47f
7:30am 13 15 mph 1023.4mb 52f 47f
7:24am 13 15 mph 1023.4mb 52f 47f
7:18am 13 15 mph 1023.4mb 52f 47f
7:12am 14 16 mph 1023.4mb 52f 47f
7:06am 13 14 mph 1023.4mb 52f 47f
7:00am 13 14 mph 1023.4mb 52f 47f
6:36am 14 16 mph 1023.6mb 52f 47f
6:30am 14 16 mph 1023.7mb 52f 47f
6:24am 11 14 mph 1023.5mb 52f 47f
6:18am 7 8 mph 1023.6mb 53f 46f
6:12am 7 8 mph 1023.6mb 53f 46f
6:06am 6 8 mph 1023.7mb 53f 45f
6:00am 3 6 mph 1023.8mb 53f 45f
5:36am 2 5 mph 1024mb 53f 44f
5:30am 5 6 mph 1024.1mb 53f 44f
5:24am 3 6 mph 1024.2mb 53f 44f
5:18am 3 6 mph 1024.2mb 53f 44f
5:12am 6 7 mph 1024.2mb 53f 43f
5:06am 6 7 mph 1024.4mb 53f 43f
5:00am 6 7 mph 1024.5mb 53f 43f
4:36am 6 7 mph 1024.9mb 53f 43f
4:30am 5 7 mph 1025mb 53f 44f
4:24am 6 8 mph 1025mb 53f 44f
4:18am 7 11 mph 1025.1mb 53f 46f
4:12am 11 14 mph 1025.2mb 53f 46f
4:06am 13 15 mph 1025.2mb 53f 46f
4:00am 14 15 mph 1025.3mb 53f 46f
3:36am 11 13 mph - - 46f
3:30am 10 11 mph - - 45f
3:24am 2 5 mph - - 46f
3:18am 3 6 mph - - 46f
3:12am 6 8 mph - - 45f
3:06am 6 8 mph - - 46f
3:00am 7 8 mph - - 46f
2:36am 7 9 mph 1025.4mb 53f 46f
2:30am 7 9 mph 1025.4mb 53f 45f
2:24am 9 13 mph 1025.5mb 53f 45f
2:18am 10 15 mph 1025.5mb 53f 46f
2:12am 10 14 mph 1025.4mb 53f 46f
2:06am 11 16 mph 1025.4mb 53f 46f
2:00am 14 16 mph 1025.5mb 53f 47f
1:36am 14 16 mph 1025.4mb 53f 46f
1:30am 14 16 mph 1025.4mb 53f 46f
1:24am 14 15 mph 1025.4mb 53f 47f
1:18am 15 16 mph 1025.4mb 53f 46f
1:12am 14 16 mph 1025.6mb 53f 46f
1:06am 13 16 mph 1025.7mb 53f 46f
1:00am 13 15 mph 1025.7mb 53f 46f
12:36am 9 10 mph 1025.9mb 53f 44f
12:30am 9 11 mph 1026mb 53f 44f
12:24am 9 11 mph 1026.1mb 52f 44f
12:18am 10 11 mph 1026.1mb 52f 44f
12:12am 8 10 mph 1026.2mb 52f 45f
12:06am 7 9 mph 1026.4mb 52f 45f
12:00am 7 8 mph 1026.4mb 52f 46f
Mon 01/22 11:36pm 2 5 mph 1026.5mb 52f 46f
11:30pm 3 5 mph 1026.5mb 52f 45f
11:24pm 3 5 mph 1026.6mb 52f 45f
11:18pm 3 6 mph 1026.7mb 52f 45f
11:12pm 5 6 mph 1026.7mb 52f 45f
11:06pm 5 9 mph 1026.7mb 52f 45f
11:00pm 7 10 mph 1026.8mb 52f 44f
10:36pm 7 11 mph 1027mb 52f 45f
10:30pm 5 7 mph 1027mb 52f 45f
10:24pm 6 8 mph 1026.9mb 52f 44f
10:18pm 7 9 mph 1027mb 52f 44f
10:12pm 5 8 mph 1027mb 52f 44f
10:06pm 7 8 mph 1027mb 52f 44f
10:00pm 6 11 mph 1027.1mb 52f 46f
9:36pm 7 8 mph 1027.4mb 52f 45f
9:30pm 7 8 mph 1027.4mb 52f 45f
9:24pm 7 7 mph 1027.2mb 52f 46f
9:18pm 5 6 mph 1027.1mb 52f 46f
9:12pm 6 6 mph 1027.1mb 52f 46f
9:06pm 6 8 mph 1027.1mb 52f 45f
9:00pm 8 9 mph 1027mb 52f 45f
8:36pm 6 7 mph 1027.1mb 52f 46f
8:30pm 5 6 mph 1027.3mb 52f 46f
8:24pm 5 6 mph 1027.3mb 52f 46f
8:18pm 5 5 mph 1027.2mb 52f 46f
8:12pm 5 6 mph 1027.1mb 52f 46f
8:06pm 3 5 mph 1027.2mb 52f 47f
8:00pm 3 6 mph 1027.1mb 52f 47f
7:36pm 7 9 mph 1026.9mb 52f 46f
7:30pm 6 8 mph 1026.8mb 53f 46f
7:24pm 6 7 mph 1026.9mb 53f 47f
7:18pm 5 7 mph 1026.9mb 53f 47f
7:12pm 6 7 mph 1026.9mb 53f 47f
7:06pm 6 8 mph 1026.9mb 53f 47f
7:00pm 6 7 mph 1026.9mb 53f 47f
6:54pm 6 7 mph 1026.9mb 53f 48f
6:48pm 5 6 mph 1027mb 53f 50f
6:36pm 3 5 mph 1027.1mb 53f 50f
6:30pm 3 5 mph 1027.1mb 53f 51f
6:24pm 3 5 mph 1027.1mb 53f 50f
6:18pm 3 5 mph 1027mb 53f 50f
6:12pm 3 5 mph 1027mb 53f 50f
6:06pm 3 3 mph 1026.9mb 53f 51f
6:00pm 3 5 mph 1026.9mb 53f 51f
5:54pm 3 5 mph 1026.6mb 53f 50f
5:36pm 3 3 mph 1026.5mb 53f 50f
5:30pm 3 5 mph 1026.5mb 53f 50f
5:24pm 3 5 mph 1026.6mb 53f 50f
5:18pm 3 5 mph 1026.6mb 53f 51f
5:12pm 3 5 mph 1026.4mb 53f 51f
5:06pm 3 5 mph 1026.4mb 53f 51f
5:00pm 3 6 mph 1026.3mb 53f 51f
4:54pm 5 6 mph 1026.3mb 53f 50f
4:48pm 5 6 mph 1026.3mb 53f 50f
4:36pm 6 7 mph 1026.5mb 53f 50f
4:30pm 6 7 mph 1026.5mb 53f 51f
4:24pm 6 6 mph 1026.2mb 53f 50f
4:18pm 5 6 mph 1026.2mb 53f 51f
4:12pm 5 6 mph 1026.1mb 53f 50f
4:06pm 6 6 mph 1026.1mb 53f 50f
4:00pm 6 7 mph 1026.3mb 53f 50f
3:54pm 6 7 mph 1026.4mb 53f 50f
3:48pm 6 7 mph 1026.4mb 53f 50f
3:36pm 6 8 mph 1026.7mb 53f 50f
3:30pm 7 7 mph 1026.8mb 53f 50f
3:24pm 7 8 mph 1026.8mb 53f 50f
3:18pm 7 8 mph 1026.7mb 53f 50f
3:12pm 7 8 mph 1026.9mb 53f 50f
3:06pm 7 8 mph 1027.1mb 53f 50f
3:00pm 8 9 mph 1027.2mb 53f 50f
2:54pm 8 9 mph 1027.3mb 53f 50f
2:48pm 8 9 mph 1027.4mb 53f 50f
2:36pm 9 10 mph 1027.6mb 53f 50f
2:30pm 9 9 mph 1027.6mb 53f 50f
2:24pm 9 9 mph 1027.7mb 53f 50f
2:18pm 8 9 mph 1027.6mb 53f 50f
2:12pm 8 9 mph 1027.7mb 53f 50f
2:06pm 8 9 mph 1027.6mb 53f 50f
2:00pm 7 8 mph 1027.7mb 53f 50f
1:54pm 7 8 mph 1027.8mb 53f 50f
1:48pm 7 8 mph 1027.9mb 53f 50f
1:36pm 7 8 mph 1027.9mb 53f 50f
1:30pm 7 8 mph 1028mb 53f 50f
1:24pm 5 6 mph 1028mb 53f 50f
1:18pm 5 6 mph 1028mb 53f 50f
1:12pm 6 6 mph 1028mb 53f 50f
1:06pm 7 7 mph 1028.2mb 53f 50f
1:00pm 7 8 mph 1028.2mb 53f 49f
12:54pm 6 6 mph 1028.2mb 53f 49f
12:48pm 5 6 mph 1028.3mb 53f 50f
12:36pm 5 6 mph 1028.4mb 53f 49f
12:30pm 5 6 mph 1028.4mb 52f 49f
12:24pm 5 5 mph 1028.2mb 52f 49f
12:18pm 5 6 mph 1028.2mb 52f 49f
12:12pm 5 6 mph 1028.3mb 52f 49f
12:06pm 3 5 mph 1028.4mb 52f 49f
12:00pm 3 3 mph 1028.5mb 52f 49f
11:54am 3 5 mph 1028.6mb 52f 49f
11:48am 3 5 mph 1028.6mb 52f 49f
11:36am 3 5 mph 1028.8mb 52f 50f
11:30am 2 3 mph 1028.9mb 52f 51f
11:24am 2 3 mph 1028.9mb 52f 51f
11:18am 2 3 mph 1029mb 52f 50f
11:12am 2 3 mph 1028.9mb 52f 50f
11:06am  -  2 mph 1028.8mb 52f 51f
11:00am  -  1 mph 1028.7mb 52f 51f
10:54am 1 3 mph 1028.7mb 52f 50f
10:48am 1 3 mph 1028.7mb 52f 50f
10:36am 2 3 mph 1028.7mb 52f 49f
10:30am 3 5 mph 1028.7mb 52f 48f
10:24am 3 5 mph 1028.7mb 52f 49f
10:18am 3 5 mph 1028.7mb 52f 49f
10:12am 2 3 mph 1028.8mb 52f 49f
10:06am 2 5 mph 1028.7mb 52f 48f
10:00am 3 5 mph 1028.7mb 52f 47f
9:54am 5 6 mph 1028.8mb 52f 47f
9:48am 5 5 mph 1028.8mb 52f 46f
9:36am 5 6 mph 1028.6mb 52f 46f
9:30am 5 6 mph 1028.6mb 52f 45f
9:24am 6 7 mph 1028.4mb 52f 44f
9:18am 6 8 mph 1028.3mb 52f 44f
9:12am 6 8 mph 1028.3mb 52f 44f
9:06am 7 9 mph 1028.3mb 52f 44f
9:00am 7 9 mph 1028.3mb 52f 44f
8:54am 7 8 mph 1028.2mb 52f 44f
8:48am 6 8 mph 1028.2mb 52f 44f
8:36am 5 7 mph 1028.2mb 52f 44f
8:30am 5 6 mph 1028mb 52f 44f
8:24am 3 5 mph 1028mb 52f 45f
8:18am 3 5 mph 1027.8mb 52f 45f
8:12am 3 5 mph 1027.7mb 52f 45f
8:06am 3 5 mph 1027.6mb 52f 46f
8:00am 1 3 mph 1027.5mb 52f 46f
7:54am 2 3 mph 1027.4mb 52f 46f
7:48am 1 5 mph 1027.2mb 52f 46f
7:36am 3 5 mph 1027.1mb 53f 46f
7:30am 3 5 mph 1027mb 53f 46f
7:24am 5 6 mph 1027mb 53f 46f
7:18am 3 6 mph 1027mb 53f 45f
7:12am 3 5 mph 1027mb 53f 46f
7:06am 2 5 mph 1027mb 53f 46f
7:00am 2 3 mph 1027mb 53f 47f
6:54am 1 3 mph 1026.9mb 53f 47f
6:48am 1 3 mph 1026.9mb 53f 46f
6:36am 2 3 mph 1026.7mb 53f 46f
6:30am 2 6 mph 1026.6mb 53f 46f
6:24am 2 3 mph 1026.6mb 53f 46f
6:18am 2 5 mph 1026.6mb 53f 46f
6:12am 3 5 mph 1026.5mb 53f 46f
6:06am 2 5 mph 1026.5mb 53f 46f
6:00am 3 5 mph 1026.5mb 53f 46f
5:54am 2 5 mph 1026.4mb 53f 46f
5:48am 3 5 mph 1026.4mb 53f 46f
5:36am 5 8 mph 1026.3mb 53f 45f
5:30am 6 8 mph 1026.3mb 53f 45f
5:24am 6 7 mph 1026.3mb 53f 44f
5:18am 7 9 mph 1026.4mb 53f 44f
5:12am 8 10 mph 1026.4mb 53f 44f
5:06am 8 10 mph 1026.4mb 53f 44f
5:00am 7 10 mph 1026.3mb 53f 44f
4:54am 9 11 mph 1026.4mb 53f 43f
4:48am 7 9 mph 1026.4mb 53f 44f
4:36am 7 8 mph 1026.5mb 53f 44f
4:30am 6 8 mph 1026.4mb 53f 44f
4:24am 7 8 mph 1026.4mb 53f 44f
4:18am 6 8 mph 1026.3mb 53f 44f
4:12am 6 8 mph 1026.3mb 53f 44f
4:06am 6 7 mph 1026.3mb 53f 45f
4:00am 6 6 mph 1026.3mb 53f 46f
3:54am 2 3 mph 1026.3mb 53f 46f
3:48am 2 3 mph 1026.2mb 53f 46f
3:36am 2 3 mph 1026.2mb 53f 47f
3:30am 2 3 mph 1026.2mb 53f 47f
3:24am 2 5 mph 1026.1mb 53f 47f
3:18am 5 6 mph 1026mb 53f 47f
3:12am 5 5 mph 1026mb 53f 47f
3:06am 2 5 mph 1025.9mb 53f 47f
3:00am 3 5 mph 1025.8mb 53f 47f
2:54am 5 6 mph 1025.7mb 53f 47f
2:48am 3 3 mph 1025.6mb 53f 47f
2:36am 3 5 mph 1025.5mb 53f 47f
2:30am 3 5 mph 1025.3mb 53f 48f
2:24am 3 3 mph 1025.3mb 53f 48f
2:18am 3 5 mph 1025.2mb 53f 48f
2:12am 3 3 mph 1025.2mb 53f 48f
2:06am 3 5 mph 1025.1mb 53f 48f
2:00am 2 3 mph 1025mb 53f 48f
1:54am 2 5 mph 1024.9mb 53f 47f
1:48am 2 5 mph 1024.9mb 53f 48f
1:36am 5 6 mph 1024.7mb 53f 48f
1:30am 3 5 mph 1024.7mb 53f 47f
1:24am 5 6 mph 1024.7mb 53f 47f
1:18am 5 6 mph 1024.6mb 53f 47f
1:12am 6 6 mph 1024.6mb 53f 48f
1:06am 6 7 mph 1024.6mb 53f 47f
1:00am 6 7 mph 1024.6mb 53f 48f
12:54am 6 7 mph 1024.5mb 53f 48f
12:48am 5 6 mph 1024.5mb 52f 48f
12:36am 5 6 mph 1024.4mb 52f 48f
12:30am 6 7 mph 1024.4mb 52f 47f
12:24am 5 7 mph 1024.4mb 52f 47f
12:18am 3 6 mph 1024.4mb 52f 48f
12:12am 5 6 mph 1024.3mb 52f 47f
12:06am 5 6 mph 1024.3mb 52f 48f
12:00am 3 6 mph 1024.3mb 52f 47f
Sun 01/21 11:54pm 5 5 mph 1024.3mb 52f 47f
11:48pm 5 6 mph 1024.3mb 52f 47f
11:36pm 5 8 mph 1024mb 52f 47f
11:30pm 6 7 mph 1023.9mb 52f 47f
11:24pm 7 8 mph 1023.9mb 52f 47f
11:18pm 6 7 mph 1023.9mb 52f 47f
11:12pm 5 7 mph 1024mb 52f 47f
11:06pm 6 8 mph 1023.8mb 52f 47f
11:00pm 6 8 mph 1023.7mb 52f 47f
10:54pm 5 8 mph 1023.6mb 52f 47f
10:48pm 6 8 mph 1023.5mb 52f 47f
10:36pm 6 7 mph 1023.4mb 51f 48f
10:30pm 7 9 mph 1023.5mb 51f 47f
10:24pm 6 7 mph 1023.4mb 51f 47f
10:18pm 6 8 mph 1023.3mb 51f 47f
10:12pm 7 10 mph 1023.2mb 51f 47f
10:06pm 7 9 mph 1023.2mb 51f 47f
10:00pm 6 8 mph 1023.1mb 51f 47f
9:54pm 7 9 mph 1023.1mb 51f 48f
9:48pm 6 9 mph 1023mb 51f 48f
9:36pm 6 7 mph 1023mb 51f 48f
9:30pm 6 8 mph 1023mb 51f 48f
9:24pm 6 9 mph 1022.8mb 51f 48f
9:18pm 7 9 mph 1022.8mb 51f 48f
9:12pm 6 8 mph 1023mb 51f 48f
9:06pm 5 7 mph 1022.8mb 52f 48f
9:00pm 5 6 mph 1022.7mb 52f 48f
8:54pm 3 5 mph 1022.6mb 52f 48f
8:48pm 2 3 mph 1022.6mb 52f 48f
8:36pm  -  2 mph 1022.5mb 52f 48f
8:30pm 2 6 mph 1022.4mb 52f 48f
8:24pm 3 6 mph 1022.4mb 52f 48f
8:18pm 5 7 mph 1022.3mb 52f 47f
8:12pm 7 9 mph 1022.3mb 52f 47f
8:06pm 8 9 mph 1022.2mb 52f 47f
8:00pm 9 13 mph 1022.2mb 52f 47f
7:54pm 13 14 mph 1022.1mb 52f 47f
7:48pm 11 15 mph 1022mb 52f 47f
7:36pm 14 16 mph 1021.8mb 53f 48f
7:30pm 14 18 mph 1021.8mb 53f 48f
7:24pm 15 16 mph 1021.7mb 53f 48f
7:18pm 16 17 mph 1021.5mb 53f 47f
7:12pm 16 18 mph 1021.4mb 53f 48f
7:06pm 17 20 mph 1021.3mb 53f 48f
7:00pm 14 16 mph 1021.2mb 53f 48f
6:54pm 10 16 mph 1021.1mb 53f 49f
6:48pm 13 15 mph 1021mb 53f 49f
6:36pm 11 15 mph 1020.6mb 53f 49f
6:30pm 14 20 mph 1020.3mb 53f 49f
6:24pm 11 17 mph 1020.2mb 53f 49f
6:18pm 17 20 mph 1020.1mb 53f 50f
6:12pm 16 22 mph 1020.1mb 53f 49f
6:06pm 18 26 mph 1019.9mb 53f 49f
6:00pm 18 22 mph 1019.8mb 53f 49f
5:54pm 18 22 mph 1019.6mb 53f 49f
5:48pm 17 24 mph 1019.5mb 53f 50f
5:36pm 21 26 mph 1019.2mb 53f 50f
5:30pm 22 28 mph 1019.2mb 53f 50f
5:24pm 23 29 mph 1019.1mb 53f 50f
5:18pm 28 31 mph 1019.1mb 53f 50f
5:12pm 23 28 mph 1019mb 53f 50f
5:06pm 22 26 mph 1019mb 53f 50f
5:00pm 20 23 mph 1019mb 53f 50f
4:54pm 17 25 mph 1018.9mb 53f 50f
4:48pm 21 25 mph 1019mb 53f 50f
4:36pm 22 28 mph 1018.9mb 53f 50f
4:30pm 22 26 mph 1018.8mb 53f 50f
4:24pm 23 25 mph 1018.8mb 53f 50f
4:18pm 22 28 mph 1018.9mb 53f 50f
4:12pm 25 31 mph 1018.8mb 53f 51f
4:06pm 23 30 mph 1018.9mb 53f 51f
4:00pm 23 28 mph 1018.9mb 53f 50f
3:54pm 22 25 mph 1018.9mb 53f 50f
3:48pm 22 26 mph 1019mb 53f 50f
3:36pm 23 30 mph 1019.1mb 53f 51f
3:30pm 22 29 mph 1019mb 53f 51f
3:24pm 25 33 mph 1019mb 53f 51f
3:18pm 24 30 mph 1019mb 53f 51f
3:12pm 21 24 mph 1019mb 53f 51f
3:06pm 18 25 mph 1018.9mb 53f 51f
3:00pm 21 25 mph 1018.9mb 53f 51f
2:54pm 21 26 mph 1018.9mb 53f 51f
2:48pm 23 29 mph 1018.9mb 53f 51f
2:36pm 30 37 mph 1019mb 53f 51f
2:30pm 24 31 mph 1018.9mb 53f 51f
2:24pm 23 30 mph 1018.9mb 53f 51f
2:18pm 23 29 mph 1018.9mb 53f 51f
2:12pm 26 32 mph 1018.8mb 53f 51f
2:06pm 25 30 mph 1018.9mb 53f 51f
2:00pm 23 28 mph 1018.9mb 53f 51f
1:54pm 26 36 mph 1019mb 53f 51f
1:48pm 30 41 mph 1019mb 53f 51f
1:36pm 29 36 mph 1019.1mb 53f 51f
1:30pm 26 37 mph 1019.3mb 53f 51f
1:24pm 31 36 mph 1019.3mb 53f 51f
1:18pm 29 33 mph 1019.3mb 53f 51f
1:12pm 29 36 mph 1019.4mb 53f 51f
1:06pm 24 31 mph 1019.5mb 53f 51f
1:00pm 26 34 mph 1019.6mb 53f 51f
12:54pm 24 31 mph 1019.7mb 53f 50f
12:48pm 24 33 mph 1019.7mb 53f 50f
12:36pm 28 36 mph 1020mb 53f 50f
12:30pm 30 37 mph 1020.1mb 53f 50f
12:24pm 24 32 mph 1020.1mb 53f 50f
12:18pm 26 34 mph 1020.4mb 53f 50f
12:12pm 26 34 mph 1020.6mb 53f 50f
12:06pm 23 29 mph 1020.8mb 53f 49f
12:00pm 23 31 mph 1021mb 53f 49f
11:54am 24 30 mph 1021.2mb 53f 49f
11:48am 22 30 mph 1021.4mb 53f 49f
11:36am 25 31 mph 1021.7mb 53f 49f
11:30am 25 30 mph 1022mb 53f 49f
11:24am 26 31 mph 1022.1mb 53f 49f
11:18am 25 32 mph 1022.2mb 53f 49f
11:12am 28 32 mph 1022.3mb 53f 49f
11:06am 28 32 mph 1022.4mb 53f 49f
11:00am 26 31 mph 1022.5mb 53f 49f
10:54am 26 30 mph 1022.5mb 53f 49f
10:48am 23 28 mph 1022.6mb 53f 49f
10:36am 22 24 mph 1022.7mb 53f 49f
10:30am 21 26 mph 1022.6mb 52f 49f
10:24am 23 29 mph 1022.6mb 52f 49f
10:18am 22 25 mph 1022.6mb 52f 49f
10:12am 22 26 mph 1022.5mb 52f 49f
10:06am 22 28 mph 1022.5mb 52f 49f
10:00am 21 29 mph 1022.5mb 52f 50f
9:54am 25 30 mph 1022.4mb 52f 50f
9:48am 25 30 mph 1022.3mb 52f 50f
9:36am 24 31 mph 1022.3mb 52f 50f
9:30am 25 28 mph 1022.3mb 52f 50f
9:24am 25 30 mph 1022.2mb 52f 50f
9:18am 25 30 mph 1022.2mb 52f 50f
9:12am 24 29 mph 1022.1mb 52f 50f
9:06am 25 31 mph 1022mb 52f 50f
9:00am 22 28 mph 1022mb 52f 50f
8:54am 23 26 mph 1022mb 52f 51f
8:48am 26 30 mph 1022mb 52f 51f
8:36am 24 32 mph 1021.9mb 53f 52f
8:30am 24 29 mph 1021.7mb 53f 52f
8:24am 24 29 mph 1021.6mb 53f 53f
8:18am 26 33 mph 1021.5mb 53f 53f
8:12am 25 31 mph 1021.5mb 53f 53f
8:06am 23 26 mph 1021.4mb 53f 53f
8:00am 24 30 mph 1021.4mb 53f 53f
7:54am 24 30 mph 1021.4mb 53f 53f
7:48am 24 30 mph 1021.5mb 53f 52f
7:36am 23 29 mph 1021.5mb 53f 52f
7:30am 18 25 mph 1021.5mb 53f 52f
7:24am 22 26 mph 1021.5mb 53f 52f
7:18am 20 24 mph 1021.6mb 53f 52f
7:12am 22 28 mph 1021.6mb 53f 52f
7:06am 23 28 mph 1021.7mb 53f 52f
7:00am 24 31 mph 1021.8mb 53f 52f
6:54am 25 32 mph 1021.8mb 53f 52f
6:48am 25 31 mph 1021.8mb 53f 51f
6:36am 25 30 mph 1021.8mb 53f 51f
6:30am 23 36 mph 1021.8mb 53f 51f
6:24am 25 30 mph 1021.8mb 53f 51f
6:18am 24 28 mph 1021.7mb 53f 51f
6:12am 22 26 mph 1021.8mb 53f 51f
6:06am 21 23 mph 1021.8mb 53f 51f
6:00am 23 26 mph 1021.6mb 53f 51f
5:54am 18 23 mph 1021.7mb 53f 51f
5:48am 16 23 mph 1021.8mb 53f 51f
5:36am 21 24 mph 1021.6mb 53f 50f
5:30am 18 24 mph 1021.4mb 53f 50f
5:24am 21 28 mph 1021.3mb 53f 50f
5:18am 22 26 mph 1021.3mb 53f 50f
5:12am 17 23 mph 1021.5mb 53f 50f
5:06am 18 24 mph 1021.9mb 53f 50f
5:00am 20 28 mph 1022mb 53f 51f
4:54am 24 28 mph 1022.2mb 53f 51f
4:48am 18 28 mph 1022.2mb 53f 51f
4:36am 17 21 mph 1022.7mb 53f 51f
4:30am 16 22 mph 1022.9mb 53f 50f
4:24am 13 15 mph 1022.8mb 53f 49f
4:18am 13 16 mph 1022.7mb 53f 48f
4:12am 13 17 mph 1022.7mb 53f 48f
4:06am 10 14 mph 1022.8mb 53f 48f
4:00am 10 14 mph 1022.9mb 53f 48f
3:54am 9 13 mph 1023.2mb 53f 48f
3:48am 10 14 mph 1023.4mb 53f 48f
3:36am 13 16 mph 1023.5mb 53f 48f
3:30am 14 17 mph 1023.6mb 53f 47f
3:24am 10 14 mph 1023.6mb 53f 47f
3:18am 10 13 mph 1023.7mb 53f 47f
3:12am 10 15 mph 1023.8mb 53f 48f
3:06am 14 17 mph 1024mb 53f 47f
3:00am 13 15 mph 1024.1mb 53f 47f
2:54am 10 14 mph 1024.1mb 53f 47f
2:48am 10 15 mph 1024.2mb 53f 47f
2:36am 10 14 mph 1024.3mb 53f 47f
2:30am 10 13 mph 1024.4mb 53f 47f
2:24am 10 13 mph 1024.5mb 53f 47f
2:18am 10 13 mph 1024.4mb 53f 47f
2:12am 9 11 mph 1024.4mb 53f 47f
2:06am 8 11 mph 1024.3mb 53f 47f
2:00am 11 14 mph 1024.4mb 53f 48f
1:54am 14 15 mph 1024.4mb 53f 47f
1:48am 14 16 mph 1024.5mb 53f 47f
1:36am 13 15 mph 1024.5mb 53f 47f
1:30am 13 15 mph 1024.4mb 53f 47f
1:24am 13 15 mph 1024.5mb 53f 47f
1:18am 14 15 mph 1024.5mb 53f 47f
1:12am 13 15 mph 1024.5mb 53f 47f
1:06am 14 16 mph 1024.5mb 53f 47f
1:00am 13 15 mph 1024.4mb 53f 47f
12:54am 8 11 mph 1024.4mb 53f 46f
12:48am 6 14 mph 1024.4mb 53f 46f
12:36am 13 14 mph 1024.5mb 53f 47f
12:30am 10 14 mph 1024.5mb 53f 47f
12:24am 7 11 mph 1024.6mb 53f 47f
12:18am 9 11 mph 1024.6mb 53f 47f
12:12am 9 13 mph 1024.6mb 53f 47f
12:06am 8 13 mph 1024.5mb 53f 47f
12:00am 6 9 mph 1024.5mb 53f 46f
Sat 01/20 11:54pm 8 10 mph 1024.6mb 53f 46f
11:48pm 9 13 mph 1024.6mb 53f 47f
11:36pm 10 14 mph 1024.5mb 53f 46f
11:30pm 11 15 mph 1024.7mb 53f 46f
11:24pm 14 16 mph 1024.4mb 53f 46f
11:18pm 11 16 mph 1024.4mb 53f 45f
11:12pm 13 15 mph 1024.4mb 53f 45f
11:06pm 13 15 mph 1024.6mb 53f 45f
11:00pm 10 13 mph 1024.7mb 53f 45f
10:54pm 9 11 mph 1024.9mb 53f 45f
10:48pm 10 11 mph 1025mb 53f 45f
10:36pm 8 10 mph 1025mb 53f 45f
10:30pm 7 9 mph 1025.1mb 53f 45f
10:24pm 7 8 mph 1025mb 53f 46f
10:18pm 7 9 mph 1025mb 53f 46f
10:12pm 7 9 mph 1025.1mb 53f 46f
10:06pm 7 9 mph 1025.1mb 53f 46f
10:00pm 7 8 mph 1025.1mb 53f 46f
9:54pm 6 8 mph 1025.1mb 53f 46f
9:48pm 6 7 mph 1025.1mb 52f 46f
9:36pm 7 8 mph 1025.1mb 52f 46f
9:30pm 6 7 mph 1025.1mb 52f 46f
9:24pm 6 7 mph 1025mb 52f 45f
9:18pm 5 7 mph 1025mb 52f 46f
9:12pm 6 10 mph 1025mb 52f 46f
9:06pm 10 11 mph 1024.9mb 52f 44f
9:00pm 8 9 mph 1024.9mb 52f 45f
8:54pm 7 8 mph 1024.9mb 52f 45f
8:48pm 6 7 mph 1024.9mb 52f 45f
8:36pm 6 7 mph 1024.9mb 52f 45f
8:30pm 5 6 mph 1024.8mb 52f 46f
8:24pm 5 6 mph 1024.9mb 52f 46f
8:18pm 5 6 mph 1024.9mb 52f 45f
8:12pm 6 7 mph 1024.8mb 52f 45f
8:06pm 6 7 mph 1024.8mb 52f 46f
8:00pm 5 6 mph 1024.9mb 52f 46f
7:54pm 6 7 mph 1024.9mb 52f 46f
7:48pm 6 7 mph 1025mb 53f 46f
7:36pm 6 7 mph 1024.9mb 53f 46f
7:30pm 6 7 mph 1024.9mb 53f 46f
7:24pm 5 8 mph 1024.9mb 53f 46f
7:18pm 6 7 mph 1024.9mb 53f 46f
7:12pm 5 7 mph 1024.9mb 53f 46f
7:06pm 6 7 mph 1024.9mb 53f 46f
7:00pm 6 7 mph 1024.9mb 53f 47f
6:54pm 6 7 mph 1024.9mb 53f 47f
6:48pm 6 6 mph 1024.8mb 53f 47f
6:36pm 3 6 mph 1024.9mb 53f 48f
6:30pm 5 6 mph 1024.9mb 53f 48f
6:24pm 6 6 mph 1024.8mb 53f 47f
6:18pm 5 6 mph 1025mb 53f 48f
6:12pm 3 6 mph 1024.9mb 53f 48f
6:06pm 3 5 mph 1024.9mb 53f 49f
6:00pm 1 3 mph 1025mb 53f 49f
5:54pm 2 3 mph 1024.9mb 53f 49f
5:48pm 3 5 mph 1024.9mb 53f 49f
5:36pm 3 6 mph 1024.9mb 53f 49f
5:30pm 5 6 mph 1024.9mb 53f 49f
5:24pm 3 5 mph 1024.9mb 53f 49f
5:18pm 3 5 mph 1024.9mb 53f 49f
5:12pm 5 5 mph 1024.9mb 53f 49f
5:06pm 2 5 mph 1024.9mb 53f 49f
5:00pm 3 3 mph 1024.9mb 53f 49f
4:54pm 2 5 mph 1024.9mb 53f 49f
4:48pm 2 3 mph 1024.8mb 53f 50f
4:36pm 2 5 mph 1024.8mb 53f 49f
4:30pm  -  2 mph 1024.8mb 53f 49f
4:24pm  -  2 mph 1024.9mb 53f 49f
4:18pm  -  2 mph 1024.9mb 53f 50f
4:12pm 2 5 mph 1024.9mb 53f 49f
4:06pm 3 6 mph 1024.9mb 53f 49f
4:00pm 3 5 mph 1025mb 53f 49f
3:54pm 3 5 mph 1024.9mb 53f 50f
3:48pm 1 2 mph 1024.8mb 53f 50f
3:36pm 2 3 mph 1024.7mb 53f 50f
3:30pm  -  2 mph 1024.6mb 53f 50f
3:24pm 1 2 mph 1024.6mb 53f 50f
3:18pm 2 5 mph 1024.6mb 53f 50f
3:12pm 2 5 mph 1024.6mb 53f 50f
3:06pm 3 3 mph 1024.5mb 53f 50f
3:00pm 1 2 mph 1024.5mb 53f 50f
2:54pm 1 2 mph 1024.5mb 53f 50f
2:48pm 2 3 mph 1024.6mb 53f 51f
2:36pm 1 2 mph 1024.4mb 53f 50f
2:30pm 2 3 mph 1024.4mb 53f 50f
2:24pm 2 5 mph 1024.4mb 53f 50f
2:18pm 3 5 mph 1024.4mb 53f 50f
2:12pm 2 3 mph 1024.4mb 53f 51f
2:06pm 2 3 mph 1024.5mb 53f 50f
2:00pm 2 3 mph 1024.4mb 53f 50f
1:54pm 2 3 mph 1024.4mb 53f 50f
1:48pm 2 3 mph 1024.3mb 53f 49f
1:36pm 2 3 mph 1024.4mb 53f 51f
1:30pm 2 3 mph 1024.5mb 53f 50f
1:24pm 3 6 mph 1024.5mb 53f 49f
1:18pm 5 6 mph 1024.6mb 53f 49f
1:12pm 5 6 mph 1024.7mb 53f 49f
1:06pm 5 6 mph 1024.7mb 53f 50f
1:00pm 5 6 mph 1024.6mb 53f 49f
12:54pm 3 5 mph 1024.6mb 53f 49f
12:48pm 2 3 mph 1024.7mb 53f 49f
12:36pm 3 5 mph 1024.7mb 53f 49f
12:30pm 2 3 mph 1024.8mb 53f 49f
12:24pm 1 2 mph 1024.9mb 53f 50f
12:18pm 1 2 mph 1025mb 53f 50f
12:12pm 1 3 mph 1025.1mb 53f 50f
12:06pm 1 5 mph 1025.2mb 53f 49f
12:00pm 3 5 mph 1025.2mb 53f 48f
11:54am 3 6 mph 1025.3mb 53f 48f
11:48am 3 5 mph 1025.4mb 53f 48f
11:36am 2 3 mph 1025.4mb 53f 48f
11:30am 2 6 mph 1025.4mb 53f 48f
11:24am 3 5 mph 1025.3mb 53f 47f
11:18am 3 5 mph 1025.3mb 53f 47f
11:12am 3 5 mph 1025.3mb 53f 47f
11:06am 5 6 mph 1025.4mb 53f 47f
11:00am 5 8 mph 1025.5mb 53f 47f
10:54am 5 7 mph 1025.5mb 53f 47f
10:48am 3 6 mph 1025.5mb 53f 48f
10:36am 2 6 mph 1025.5mb 53f 48f
10:30am 5 6 mph 1025.6mb 53f 46f
10:24am 5 6 mph - - 47f
10:18am 5 6 mph 1025.6mb 53f 46f
10:12am 6 6 mph 1025.5mb 53f 45f
10:06am 3 6 mph 1025.4mb 53f 46f
10:00am 3 7 mph 1025.3mb 53f 46f
9:54am 5 7 mph 1025.3mb 53f 45f
9:48am 6 8 mph 1025.3mb 53f 45f
9:36am 7 9 mph 1025.1mb 53f 44f
9:30am 5 7 mph 1025.1mb 53f 44f
9:24am 3 7 mph 1025mb 53f 45f
9:18am 6 7 mph 1025mb 53f 43f
9:12am 5 6 mph 1025mb 52f 43f
9:06am 5 6 mph 1024.9mb 52f 43f
9:00am 5 7 mph 1024.9mb 52f 44f
8:54am 6 8 mph 1024.7mb 52f 43f
8:48am 8 9 mph 1024.6mb 52f 42f
8:36am 7 7 mph 1024.6mb 52f 43f
8:30am 6 7 mph - - 43f
8:24am 5 6 mph 1024.5mb 52f 43f
8:18am 5 6 mph 1024.4mb 52f 43f
8:12am 3 6 mph 1024.4mb 52f 43f
8:06am 2 5 mph 1024.3mb 52f 44f
8:00am 3 5 mph 1024.2mb 52f 43f
7:54am 5 7 mph 1024.2mb 52f 42f
7:48am 5 6 mph 1024.1mb 52f 42f
7:36am 5 7 mph 1023.9mb 53f 42f
7:30am 6 8 mph 1023.9mb 53f 42f
7:24am 7 9 mph 1023.8mb 53f 41f
7:18am 6 8 mph 1023.9mb 53f 41f
7:12am 6 8 mph 1023.9mb 53f 42f
7:06am 6 7 mph 1023.9mb 53f 41f
7:00am 6 8 mph - - 42f
6:54am 5 6 mph 1023.8mb 53f 43f
6:48am 5 6 mph 1023.8mb 53f 43f
6:36am 3 6 mph 1023.7mb 53f 44f
6:30am 5 6 mph 1023.6mb 53f 44f
6:24am 2 5 mph 1023.6mb 53f 45f
6:18am 2 6 mph 1023.6mb 53f 44f
6:12am 3 6 mph 1023.6mb 53f 44f
6:06am 5 7 mph 1023.5mb 53f 43f
6:00am 3 6 mph 1023.5mb 53f 44f
5:54am 3 6 mph 1023.5mb 53f 44f
5:48am 3 6 mph 1023.3mb 53f 44f
5:36am 6 7 mph 1023.3mb 53f 43f
5:30am 6 7 mph 1023.3mb 53f 44f
5:24am 6 7 mph 1023.3mb 53f 44f
5:18am 5 6 mph 1023.3mb 53f 44f
5:12am 5 6 mph 1023.2mb 53f 44f
5:06am 3 6 mph 1023.2mb 53f 45f
5:00am 2 5 mph 1023.3mb 53f 45f
4:54am 3 5 mph 1023.2mb 53f 45f
4:48am 5 6 mph 1023.1mb 53f 45f
4:36am 3 6 mph 1023mb 53f 45f
4:30am 5 7 mph 1022.9mb 53f 45f
4:24am 6 8 mph 1022.8mb 53f 44f
4:18am 6 9 mph 1022.9mb 53f 45f
4:12am 5 7 mph 1022.9mb 53f 44f
4:06am 5 7 mph 1022.9mb 53f 44f
4:00am 5 7 mph 1022.9mb 53f 44f
3:54am 6 8 mph 1022.9mb 53f 43f
3:48am 5 7 mph 1022.9mb 53f 43f